createdAt,value
2023-10-20T00:00:42.000Z,98711.50
2023-10-20T00:03:10.041Z,98700.00
2023-10-20T00:05:37.194Z,98703.00
2023-10-20T00:08:04.522Z,98709.22
2023-10-20T00:10:36.275Z,98715.22
2023-10-20T00:13:04.154Z,98711.28
2023-10-20T00:15:30.632Z,98701.94
2023-10-20T00:17:57.056Z,98693.00
2023-10-20T00:20:24.044Z,98688.03
2023-10-20T00:22:50.612Z,98691.91
2023-10-20T00:25:18.206Z,98682.41
2023-10-20T00:27:44.690Z,98675.59
2023-10-20T00:30:12.700Z,98656.72
2023-10-20T00:32:41.236Z,98640.72
2023-10-20T00:35:10.664Z,98646.09
2023-10-20T00:37:37.885Z,98644.09
2023-10-20T00:40:11.953Z,98644.09
2023-10-20T00:42:39.202Z,98647.22
2023-10-20T00:45:07.963Z,98642.16
2023-10-20T00:47:37.314Z,98642.03
2023-10-20T00:50:05.720Z,98633.94
2023-10-20T00:52:33.920Z,98635.94
2023-10-20T00:55:00.876Z,98637.06
2023-10-20T00:57:27.939Z,98638.53
2023-10-20T00:59:54.595Z,98630.88
2023-10-20T01:02:21.557Z,98635.41
2023-10-20T01:04:48.295Z,98621.81
2023-10-20T01:07:16.005Z,98633.28
2023-10-20T01:09:45.573Z,98636.81
2023-10-20T01:12:12.117Z,98634.13
2023-10-20T01:14:38.690Z,98642.34
2023-10-20T01:17:05.683Z,98644.22
2023-10-20T01:19:34.053Z,98648.91
2023-10-20T01:22:00.937Z,98650.44
2023-10-20T01:24:27.931Z,98647.88
2023-10-20T01:26:54.400Z,98649.88
2023-10-20T01:29:21.182Z,98639.41
2023-10-20T01:31:47.812Z,98637.69
2023-10-20T01:34:14.393Z,98635.31
2023-10-20T01:36:40.913Z,98636.28
2023-10-20T01:39:09.206Z,98635.59
2023-10-20T01:41:35.716Z,98633.91
2023-10-20T01:44:02.270Z,98625.25
2023-10-20T01:46:29.798Z,98624.69
2023-10-20T01:48:56.335Z,98617.91
2023-10-20T01:51:22.752Z,98614.50
2023-10-20T01:53:49.171Z,98614.50
2023-10-20T01:56:15.656Z,98614.50
2023-10-20T01:58:42.225Z,98621.03
2023-10-20T02:01:11.759Z,98615.78
2023-10-20T02:03:38.551Z,98603.16
2023-10-20T02:06:06.060Z,98609.41
2023-10-20T02:08:33.178Z,98602.31
2023-10-20T02:10:59.680Z,98596.25
2023-10-20T02:13:26.063Z,98597.91
2023-10-20T02:15:52.529Z,98586.44
2023-10-20T02:18:19.099Z,98591.44
2023-10-20T02:20:45.669Z,98597.81
2023-10-20T02:23:12.852Z,98586.47
2023-10-20T02:25:39.476Z,98580.53
2023-10-20T02:28:06.577Z,98581.53
2023-10-20T02:30:33.759Z,98576.84
2023-10-20T02:33:03.267Z,98569.91
2023-10-20T02:35:29.940Z,98558.56
2023-10-20T02:37:56.508Z,98562.41
2023-10-20T02:40:23.169Z,98561.28
2023-10-20T02:42:49.624Z,98556.31
2023-10-20T02:45:16.200Z,98544.84
2023-10-20T02:47:42.761Z,98536.06
2023-10-20T02:50:09.897Z,98533.66
2023-10-20T02:52:36.900Z,98522.19
2023-10-20T02:55:03.507Z,98521.34
2023-10-20T02:57:30.786Z,98506.34
2023-10-20T02:59:57.268Z,98496.41
2023-10-20T03:02:24.201Z,98492.88
2023-10-20T03:04:56.947Z,98480.25
2023-10-20T03:07:28.225Z,98471.50
2023-10-20T03:09:55.394Z,98471.50
2023-10-20T03:12:21.869Z,98457.19
2023-10-20T03:14:49.191Z,98461.88
2023-10-20T03:17:16.014Z,98455.78
2023-10-20T03:19:44.575Z,98446.69
2023-10-20T03:22:10.986Z,98434.97
2023-10-20T03:24:37.401Z,98443.03
2023-10-20T03:27:03.988Z,98454.78
2023-10-20T03:29:30.980Z,98446.56
2023-10-20T03:31:57.464Z,98451.25
2023-10-20T03:34:23.954Z,98449.66
2023-10-20T03:36:51.649Z,98451.38
2023-10-20T03:39:24.756Z,98442.34
2023-10-20T03:41:51.631Z,98451.09
2023-10-20T03:44:18.318Z,98446.00
2023-10-20T03:46:49.575Z,98439.78
2023-10-20T03:49:20.059Z,98436.22
2023-10-20T03:51:51.011Z,98443.44
2023-10-20T03:54:20.581Z,98439.91
2023-10-20T03:56:47.085Z,98430.31
2023-10-20T03:59:17.553Z,98412.31
2023-10-20T04:01:44.561Z,98420.53
2023-10-20T04:04:12.937Z,98403.66
2023-10-20T04:06:45.307Z,98417.44
2023-10-20T04:09:12.878Z,98406.13
2023-10-20T04:11:39.948Z,98396.47
2023-10-20T04:14:07.702Z,98391.97
2023-10-20T04:16:41.343Z,98391.97
2023-10-20T04:19:13.679Z,98391.09
2023-10-20T04:21:41.849Z,98391.41
2023-10-20T04:24:08.944Z,98381.47
2023-10-20T04:26:36.583Z,98378.78
2023-10-20T04:29:05.697Z,98377.09
2023-10-20T04:31:50.957Z,98361.94
2023-10-20T04:34:35.808Z,98351.19
2023-10-20T04:37:20.807Z,98345.09
2023-10-20T04:40:05.644Z,98349.78
2023-10-20T04:42:34.660Z,98364.25
2023-10-20T04:45:19.859Z,98370.47
2023-10-20T04:47:52.976Z,98367.78
2023-10-20T04:50:39.548Z,98361.38
2023-10-20T04:53:23.751Z,98363.22
2023-10-20T04:56:22.417Z,98345.56
2023-10-20T04:59:05.649Z,98359.16
2023-10-20T05:01:42.930Z,98345.00
2023-10-20T05:04:28.294Z,98342.03
2023-10-20T05:07:06.977Z,98354.59
2023-10-20T05:09:37.013Z,98358.31
2023-10-20T05:12:03.626Z,98352.63
2023-10-20T05:14:30.120Z,98335.91
2023-10-20T05:16:56.687Z,98336.78
2023-10-20T05:19:23.124Z,98339.75
2023-10-20T05:21:50.019Z,98335.22
2023-10-20T05:24:16.497Z,98329.84
2023-10-20T05:26:46.243Z,98331.81
2023-10-20T05:29:12.856Z,98326.75
2023-10-20T05:31:39.854Z,98316.97
2023-10-20T05:34:06.467Z,98319.97
2023-10-20T05:36:33.220Z,98329.03
2023-10-20T05:38:59.704Z,98324.66
2023-10-20T05:41:27.729Z,98328.31
2023-10-20T05:43:55.145Z,98301.44
2023-10-20T05:46:22.776Z,98309.94
2023-10-20T05:48:49.504Z,98298.34
2023-10-20T05:51:16.124Z,98284.75
2023-10-20T05:53:43.060Z,98277.97
2023-10-20T05:56:11.554Z,98274.75
2023-10-20T05:58:39.355Z,98290.31
2023-10-20T06:01:12.327Z,98281.25
2023-10-20T06:03:42.312Z,98276.75
2023-10-20T06:06:09.030Z,98293.84
2023-10-20T06:08:35.714Z,98293.84
2023-10-20T06:11:04.132Z,98288.88
2023-10-20T06:13:33.514Z,98285.91
2023-10-20T06:16:10.706Z,98302.38
2023-10-20T06:18:42.510Z,98294.56
2023-10-20T06:21:18.103Z,98296.41
2023-10-20T06:23:45.070Z,98289.34
2023-10-20T06:26:11.947Z,98295.41
2023-10-20T06:28:38.565Z,98291.88
2023-10-20T06:31:24.239Z,98301.78
2023-10-20T06:33:58.810Z,98294.44
2023-10-20T06:36:27.333Z,98292.59
2023-10-20T06:38:54.210Z,98300.66
2023-10-20T06:41:20.700Z,98300.50
2023-10-20T06:43:48.213Z,98312.25
2023-10-20T06:46:15.298Z,98309.88
2023-10-20T06:48:41.748Z,98314.53
2023-10-20T06:51:08.223Z,98307.44
2023-10-20T06:53:35.459Z,98276.19
2023-10-20T06:56:15.195Z,98280.88
2023-10-20T06:58:43.155Z,98297.00
2023-10-20T07:01:09.735Z,98282.16
2023-10-20T07:03:36.504Z,98280.31
2023-10-20T07:06:08.391Z,98277.38
2023-10-20T07:08:35.244Z,98277.19
2023-10-20T07:11:05.270Z,98266.75
2023-10-20T07:13:33.153Z,98264.78
2023-10-20T07:16:00.117Z,98266.63
2023-10-20T07:18:27.535Z,98265.50
2023-10-20T07:20:57.501Z,98297.88
2023-10-20T07:23:24.874Z,98270.44
2023-10-20T07:25:51.432Z,98267.75
2023-10-20T07:28:17.851Z,98260.41
2023-10-20T07:30:44.287Z,98259.69
2023-10-20T07:33:10.876Z,98270.44
2023-10-20T07:35:40.480Z,98274.00
2023-10-20T07:38:09.213Z,98261.53
2023-10-20T07:40:38.956Z,98269.03
2023-10-20T07:43:08.744Z,98260.84
2023-10-20T07:45:41.590Z,98269.91
2023-10-20T07:48:08.912Z,98261.69
2023-10-20T07:50:35.440Z,98254.50
2023-10-20T07:53:02.292Z,98252.91
2023-10-20T07:55:29.077Z,98256.31
2023-10-20T07:57:56.483Z,98252.22
2023-10-20T08:00:23.068Z,98259.44
2023-10-20T08:02:53.984Z,98247.84
2023-10-20T08:05:21.793Z,98243.47
2023-10-20T08:07:49.925Z,98256.19
2023-10-20T08:10:16.463Z,98252.53
2023-10-20T08:12:42.917Z,98248.81
2023-10-20T08:15:09.702Z,98250.69
2023-10-20T08:17:37.808Z,98267.38
2023-10-20T08:20:08.987Z,98258.28
2023-10-20T08:22:35.400Z,98248.00
2023-10-20T08:25:01.914Z,98252.34
2023-10-20T08:27:28.599Z,98247.84
2023-10-20T08:29:57.943Z,98221.00
2023-10-20T08:32:25.784Z,98224.97
2023-10-20T08:34:52.272Z,98236.69
2023-10-20T08:37:18.825Z,98235.97
2023-10-20T08:39:45.700Z,98232.59
2023-10-20T08:42:20.311Z,98235.28
2023-10-20T08:44:47.431Z,98210.53
2023-10-20T08:47:14.442Z,98199.66
2023-10-20T08:49:41.079Z,98213.34
2023-10-20T08:52:11.192Z,98216.91
2023-10-20T08:54:38.677Z,98219.47
2023-10-20T08:57:06.147Z,98206.72
2023-10-20T08:59:33.912Z,98198.69
2023-10-20T09:02:00.789Z,98212.09
2023-10-20T09:04:28.915Z,98203.03
2023-10-20T09:06:56.675Z,98201.19
2023-10-20T09:09:23.250Z,98212.94
2023-10-20T09:11:50.123Z,98193.31
2023-10-20T09:14:16.817Z,98206.44
2023-10-20T09:16:43.492Z,98203.03
2023-10-20T09:19:12.107Z,98202.75
2023-10-20T09:21:43.037Z,98204.44
2023-10-20T09:24:12.982Z,98219.13
2023-10-20T09:26:40.469Z,98203.16
2023-10-20T09:29:10.470Z,98199.50
2023-10-20T09:31:38.395Z,98203.16
2023-10-20T09:34:08.832Z,98197.50
2023-10-20T09:36:37.199Z,98198.34
2023-10-20T09:39:09.150Z,98207.41
2023-10-20T09:41:43.880Z,98202.88
2023-10-20T09:44:15.973Z,98203.72
2023-10-20T09:47:13.921Z,98205.44
2023-10-20T09:49:41.977Z,98214.03
2023-10-20T09:52:09.199Z,98206.28
2023-10-20T09:54:37.979Z,98193.66
2023-10-20T09:57:07.214Z,98187.16
2023-10-20T09:59:34.187Z,98179.09
2023-10-20T10:02:00.957Z,98181.06
2023-10-20T10:04:41.259Z,98174.03
2023-10-20T10:07:08.785Z,98168.94
2023-10-20T10:09:38.077Z,98181.06
2023-10-20T10:12:11.928Z,98177.28
2023-10-20T10:14:38.933Z,98170.50
2023-10-20T10:17:10.733Z,98162.28
2023-10-20T10:19:50.024Z,98174.03
2023-10-20T10:22:17.042Z,98158.88
2023-10-20T10:24:52.672Z,98144.84
2023-10-20T10:27:20.763Z,98136.41
2023-10-20T10:29:50.586Z,98130.03
2023-10-20T10:32:20.451Z,98143.47
2023-10-20T10:34:49.955Z,98128.50
2023-10-20T10:37:30.537Z,98116.06
2023-10-20T10:40:12.326Z,98114.38
2023-10-20T10:42:46.384Z,98109.13
2023-10-20T10:45:35.200Z,98105.88
2023-10-20T10:48:07.029Z,98116.63
2023-10-20T10:50:34.280Z,98092.63
2023-10-20T10:53:02.017Z,98098.00
2023-10-20T10:55:28.836Z,98090.63
2023-10-20T10:57:55.360Z,98084.25
2023-10-20T11:00:23.010Z,98081.88
2023-10-20T11:02:50.108Z,61726.44
2023-10-20T11:05:18.259Z,61726.44
2023-10-20T11:08:05.245Z,61726.44
2023-10-20T11:10:35.785Z,61726.44
2023-10-20T11:13:11.521Z,61726.44
2023-10-20T11:15:38.752Z,61726.44
2023-10-20T11:18:07.466Z,61726.44
2023-10-20T11:20:42.530Z,61726.44
2023-10-20T11:23:10.228Z,61726.44
2023-10-20T11:25:37.978Z,61726.44
2023-10-20T11:28:05.193Z,61726.44
2023-10-20T11:30:33.726Z,61726.44
2023-10-20T11:33:00.504Z,61726.44
2023-10-20T11:35:27.933Z,61726.44
2023-10-20T11:37:55.681Z,61726.44
2023-10-20T11:40:22.865Z,61726.44
2023-10-20T11:42:49.608Z,61726.44
2023-10-20T11:45:16.798Z,61726.44
2023-10-20T11:47:43.923Z,61726.44
2023-10-20T11:50:19.769Z,61726.44
2023-10-20T11:52:46.557Z,61726.44
2023-10-20T11:55:13.048Z,61726.44
2023-10-20T11:57:40.202Z,61726.44
2023-10-20T12:00:11.408Z,61726.44
2023-10-20T12:02:39.696Z,61726.44
2023-10-20T12:05:07.397Z,61726.44
2023-10-20T12:07:34.030Z,61726.44
2023-10-20T12:10:00.510Z,61726.44
2023-10-20T12:12:27.058Z,61726.44
2023-10-20T12:14:53.535Z,61726.44
2023-10-20T12:17:20.599Z,61726.44
2023-10-20T12:19:50.045Z,61726.44
2023-10-20T12:22:16.847Z,61726.44
2023-10-20T12:24:43.361Z,61726.44
2023-10-20T12:27:13.087Z,61726.44
2023-10-20T12:29:41.108Z,61726.44
2023-10-20T12:32:08.712Z,61726.44
2023-10-20T12:34:35.786Z,61726.44
2023-10-20T12:37:02.605Z,61726.44
2023-10-20T12:39:29.395Z,61726.44
2023-10-20T12:41:59.206Z,61726.44
2023-10-20T12:44:27.017Z,61726.44
2023-10-20T12:46:53.458Z,61726.44
2023-10-20T12:49:20.084Z,61726.44
2023-10-20T12:51:46.635Z,61726.44
2023-10-20T12:54:13.056Z,61726.44
2023-10-20T12:56:39.531Z,61726.44
2023-10-20T12:59:06.026Z,61726.44
2023-10-20T13:01:32.605Z,61726.44
2023-10-20T13:04:00.471Z,61726.44
2023-10-20T13:06:27.228Z,61726.44
2023-10-20T13:08:53.690Z,61726.44
2023-10-20T13:11:20.797Z,61726.44
2023-10-20T13:13:47.354Z,61726.44
2023-10-20T13:16:13.801Z,61726.44
2023-10-20T13:18:40.301Z,61726.44
2023-10-20T13:21:06.940Z,61726.44
2023-10-20T13:23:33.908Z,61726.44
2023-10-20T13:26:01.601Z,61726.44
2023-10-20T13:28:28.105Z,61726.44
2023-10-20T13:31:08.759Z,61726.44
2023-10-20T13:33:36.299Z,61726.44
2023-10-20T13:36:09.213Z,61726.44
2023-10-20T13:38:39.239Z,61726.44
2023-10-20T13:41:06.962Z,61726.44
2023-10-20T13:43:33.568Z,61726.44
2023-10-20T13:46:00.138Z,61726.44
2023-10-20T13:48:27.276Z,61726.44
2023-10-20T13:50:54.080Z,61726.44
2023-10-20T13:53:20.824Z,61726.44
2023-10-20T13:55:47.834Z,61726.44
2023-10-20T13:58:15.306Z,61726.44
2023-10-20T14:00:41.906Z,61726.44
2023-10-20T14:03:08.702Z,61726.44
2023-10-20T14:05:35.953Z,61726.44
2023-10-20T14:08:03.088Z,61726.44
2023-10-20T14:10:29.824Z,61726.44
2023-10-20T14:12:58.093Z,61726.44
2023-10-20T14:15:24.888Z,61726.44
2023-10-20T14:17:52.478Z,61726.44
2023-10-20T14:20:19.438Z,61726.44
2023-10-20T14:22:45.957Z,61726.44
2023-10-20T14:25:12.548Z,61726.44
2023-10-20T14:27:40.650Z,61726.44
2023-10-20T14:30:08.232Z,61726.44
2023-10-20T14:32:35.281Z,61726.44
2023-10-20T14:35:02.298Z,61726.44
2023-10-20T14:37:28.749Z,61726.44
2023-10-20T14:39:57.539Z,61726.44
2023-10-20T14:42:24.279Z,61726.44
2023-10-20T14:44:51.635Z,61726.44
2023-10-20T14:47:18.566Z,61726.44
2023-10-20T14:49:45.077Z,61726.44
2023-10-20T14:52:13.366Z,61726.44
2023-10-20T14:54:40.425Z,61726.44
2023-10-20T14:57:07.539Z,61726.44
2023-10-20T14:59:34.309Z,61726.44
2023-10-20T15:02:00.957Z,61726.44
2023-10-20T15:04:30.865Z,61726.44
2023-10-20T15:06:58.220Z,61726.44
2023-10-20T15:09:24.916Z,61726.44
2023-10-20T15:11:52.324Z,61726.44
2023-10-20T15:14:19.041Z,61726.44
2023-10-20T15:16:45.589Z,61726.44
2023-10-20T15:19:12.104Z,61726.44
2023-10-20T15:21:38.622Z,61726.44
2023-10-20T15:24:05.429Z,61726.44
2023-10-20T15:26:31.970Z,61726.44
2023-10-20T15:28:58.891Z,61726.44
2023-10-20T15:31:25.345Z,61726.44
2023-10-20T15:33:51.970Z,61726.44
2023-10-20T15:36:18.592Z,61726.44
2023-10-20T15:38:46.321Z,61726.44
2023-10-20T15:41:19.038Z,61726.44
2023-10-20T15:43:45.935Z,61726.44
2023-10-20T15:46:13.913Z,61726.44
2023-10-20T15:48:40.746Z,61726.44
2023-10-20T15:51:08.979Z,61726.44
2023-10-20T15:53:35.784Z,61726.44
2023-10-20T15:56:02.229Z,61726.44
2023-10-20T15:58:28.801Z,61726.44
2023-10-20T16:01:05.606Z,61726.44
2023-10-20T16:03:32.712Z,61726.44
2023-10-20T16:05:59.383Z,61726.44
2023-10-20T16:08:28.719Z,61726.44
2023-10-20T16:10:55.448Z,61726.44
2023-10-20T16:13:21.861Z,61726.44
2023-10-20T16:15:48.356Z,61726.44
2023-10-20T16:18:14.894Z,61726.44
2023-10-20T16:20:41.435Z,61726.44
2023-10-20T16:23:08.769Z,61726.44
2023-10-20T16:25:36.586Z,61726.44
2023-10-20T16:28:03.558Z,61726.44
2023-10-20T16:30:30.517Z,61726.44
2023-10-20T16:32:57.188Z,61726.44
2023-10-20T16:35:23.752Z,61726.44
2023-10-20T16:37:52.243Z,61726.44
2023-10-20T16:40:19.282Z,61726.44
2023-10-20T16:42:45.766Z,61726.44
2023-10-20T16:45:12.262Z,61726.44
2023-10-20T16:47:39.511Z,61726.44
2023-10-20T16:50:07.137Z,61726.44
2023-10-20T16:52:35.579Z,61726.44
2023-10-20T16:55:02.038Z,61726.44
2023-10-20T16:57:28.449Z,61726.44
2023-10-20T16:59:55.183Z,61726.44
2023-10-20T17:02:21.721Z,61726.44
2023-10-20T17:04:48.222Z,61726.44
2023-10-20T17:07:14.704Z,61726.44
2023-10-20T17:09:41.140Z,61726.44
2023-10-20T17:12:08.415Z,61726.44
2023-10-20T17:14:34.930Z,61726.44
2023-10-20T17:17:01.348Z,61726.44
2023-10-20T17:19:27.815Z,61726.44
2023-10-20T17:21:54.274Z,61726.44
2023-10-20T17:24:20.679Z,61726.44
2023-10-20T17:26:47.308Z,61726.44
2023-10-20T17:29:13.810Z,61726.44
2023-10-20T17:31:40.288Z,61726.44
2023-10-20T17:34:06.765Z,61726.44
2023-10-20T17:36:33.270Z,61726.44
2023-10-20T17:39:00.959Z,61726.44
2023-10-20T17:41:27.844Z,61726.44
2023-10-20T17:43:54.357Z,61726.44
2023-10-20T17:46:20.882Z,61726.44
2023-10-20T17:48:48.241Z,61726.44
2023-10-20T17:51:14.804Z,61726.44
2023-10-20T17:53:41.823Z,61726.44
2023-10-20T17:56:08.430Z,61726.44
2023-10-20T17:58:34.955Z,61726.44
2023-10-20T18:01:09.184Z,61726.44
2023-10-20T18:03:36.408Z,61726.44
2023-10-20T18:06:21.227Z,61726.44
2023-10-20T18:08:50.718Z,61726.44
2023-10-20T18:11:18.765Z,61726.44
2023-10-20T18:13:47.305Z,61726.44
2023-10-20T18:16:17.765Z,61726.44
2023-10-20T18:18:46.746Z,61726.44
2023-10-20T18:21:13.459Z,61726.44
2023-10-20T18:23:40.557Z,61726.44
2023-10-20T18:26:08.326Z,61726.44
2023-10-20T18:28:35.214Z,61726.44
2023-10-20T18:31:10.871Z,61726.44
2023-10-20T18:33:37.415Z,61726.44
2023-10-20T18:36:04.336Z,61726.44
2023-10-20T18:38:30.793Z,61726.44
2023-10-20T18:40:57.282Z,61726.44
2023-10-20T18:43:23.728Z,61726.44
2023-10-20T18:46:00.096Z,61726.44
2023-10-20T18:48:27.868Z,61726.44
2023-10-20T18:51:03.875Z,61726.44
2023-10-20T18:53:30.563Z,61726.44
2023-10-20T18:55:57.979Z,61726.44
2023-10-20T18:58:24.524Z,61726.44
2023-10-20T19:00:53.162Z,61726.44
2023-10-20T19:03:20.493Z,61726.44
2023-10-20T19:05:49.519Z,61726.44
2023-10-20T19:08:16.830Z,61726.44
2023-10-20T19:10:43.306Z,61726.44
2023-10-20T19:13:09.772Z,61726.44
2023-10-20T19:15:36.224Z,61726.44
2023-10-20T19:18:04.106Z,61726.44
2023-10-20T19:20:30.657Z,61726.44
2023-10-20T19:22:57.118Z,61726.44
2023-10-20T19:25:23.939Z,61726.44
2023-10-20T19:27:50.345Z,61726.44
2023-10-20T19:30:17.262Z,61726.44
2023-10-20T19:32:43.781Z,61726.44
2023-10-20T19:35:10.406Z,61726.44
2023-10-20T19:37:38.242Z,61726.44
2023-10-20T19:40:06.960Z,61726.44
2023-10-20T19:42:33.596Z,61726.44
2023-10-20T19:45:02.173Z,61726.44
2023-10-20T19:47:28.802Z,61726.44
2023-10-20T19:49:55.292Z,61726.44
2023-10-20T19:52:21.773Z,61726.44
2023-10-20T19:54:48.251Z,61726.44
2023-10-20T19:57:14.689Z,61726.44
2023-10-20T19:59:41.178Z,61726.44
2023-10-20T20:02:08.884Z,61726.44
2023-10-20T20:04:35.622Z,61726.44
2023-10-20T20:07:02.214Z,61726.44
2023-10-20T20:09:29.527Z,61726.44
2023-10-20T20:11:56.981Z,61726.44
2023-10-20T20:14:23.630Z,61726.44
2023-10-20T20:16:50.213Z,61726.44
2023-10-20T20:19:16.876Z,61726.44
2023-10-20T20:21:43.391Z,61726.44
2023-10-20T20:24:09.942Z,61726.44
2023-10-20T20:26:36.447Z,61726.44
2023-10-20T20:29:05.351Z,61726.44
2023-10-20T20:31:32.155Z,61726.44
2023-10-20T20:33:58.629Z,61726.44
2023-10-20T20:36:25.090Z,61726.44
2023-10-20T20:38:51.602Z,61726.44
2023-10-20T20:41:18.186Z,61726.44
2023-10-20T20:43:44.643Z,61726.44
2023-10-20T20:46:11.227Z,61726.44
2023-10-20T20:48:37.973Z,61726.44
2023-10-20T20:51:09.550Z,61726.44
2023-10-20T20:53:36.299Z,61726.44
2023-10-20T20:56:02.761Z,61726.44
2023-10-20T20:58:29.333Z,61726.44
2023-10-20T21:00:56.288Z,61726.44
2023-10-20T21:03:23.102Z,61726.44
2023-10-20T21:06:01.264Z,61726.44
2023-10-20T21:08:28.227Z,61726.44
2023-10-20T21:10:54.762Z,61726.44
2023-10-20T21:13:21.215Z,61726.44
2023-10-20T21:15:47.747Z,61726.44
2023-10-20T21:18:14.601Z,61726.44
2023-10-20T21:20:42.537Z,61726.44
2023-10-20T21:23:09.120Z,61726.44
2023-10-20T21:25:37.598Z,61726.44
2023-10-20T21:28:04.920Z,61726.44
2023-10-20T21:30:32.035Z,61726.44
2023-10-20T21:32:58.607Z,61726.44
2023-10-20T21:35:25.114Z,61726.44
2023-10-20T21:37:51.602Z,61726.44
2023-10-20T21:40:18.069Z,61726.44
2023-10-20T21:42:44.702Z,61726.44
2023-10-20T21:45:11.369Z,61726.44
2023-10-20T21:47:38.550Z,61726.44
2023-10-20T21:50:05.677Z,61726.44
2023-10-20T21:52:32.502Z,61726.44
2023-10-20T21:54:59.196Z,61726.44
2023-10-20T21:57:25.718Z,61726.44
2023-10-20T21:59:52.256Z,61726.44
2023-10-20T22:02:20.211Z,61726.44
2023-10-20T22:04:46.713Z,61726.44
2023-10-20T22:07:13.184Z,61726.44
2023-10-20T22:09:52.960Z,61726.44
2023-10-20T22:12:19.917Z,61726.44
2023-10-20T22:14:46.434Z,61726.44
2023-10-20T22:17:12.883Z,61726.44
2023-10-20T22:19:39.307Z,61726.44
2023-10-20T22:22:05.745Z,61726.44
2023-10-20T22:24:32.230Z,61726.44
2023-10-20T22:26:58.843Z,61726.44
2023-10-20T22:29:25.410Z,61726.44
2023-10-20T22:31:52.148Z,61726.44
2023-10-20T22:34:18.646Z,61726.44
2023-10-20T22:36:45.123Z,61726.44
2023-10-20T22:39:11.598Z,61726.44
2023-10-20T22:41:38.174Z,61726.44
2023-10-20T22:44:04.863Z,61726.44
2023-10-20T22:46:31.391Z,61726.44
2023-10-20T22:48:57.883Z,61726.44
2023-10-20T22:51:24.355Z,61726.44
2023-10-20T22:53:50.819Z,61726.44
2023-10-20T22:56:17.279Z,61726.44
2023-10-20T22:58:43.696Z,61726.44
2023-10-20T23:01:10.186Z,61726.44
2023-10-20T23:03:37.199Z,61726.44
2023-10-20T23:06:03.888Z,61726.44
2023-10-20T23:08:30.513Z,61726.44
2023-10-20T23:10:57.103Z,61726.44
2023-10-20T23:13:23.716Z,61726.44
2023-10-20T23:15:50.156Z,61726.44
2023-10-20T23:18:16.852Z,61726.44
2023-10-20T23:20:43.585Z,61726.44
2023-10-20T23:23:10.205Z,61726.44
2023-10-20T23:25:36.662Z,61726.44
2023-10-20T23:28:03.919Z,61726.44
2023-10-20T23:30:30.351Z,61726.44
2023-10-20T23:32:56.909Z,61726.44
2023-10-20T23:35:25.163Z,61726.44
2023-10-20T23:37:51.669Z,61726.44
2023-10-20T23:40:18.535Z,61726.44
2023-10-20T23:42:44.997Z,61726.44
2023-10-20T23:45:11.568Z,61726.44
2023-10-20T23:47:38.310Z,61726.44
2023-10-20T23:50:06.579Z,61726.44
2023-10-20T23:52:33.515Z,61726.44
2023-10-20T23:54:59.977Z,61726.44
2023-10-20T23:57:26.482Z,61726.44
2023-10-20T23:59:53.191Z,61726.44
